Time;durP1;ratioP1;P1;durP2;ratioP2;P2;SDS_P1;SDS_P2;PMS_P1;PMS_P2;Temp;Humidity;BMP_temperature;BMP_pressure;BME280_temperature;BME280_humidity;BME280_pressure;Samples;Min_cycle;Max_cycle;Signal;HPM_P1;HPM_P2
2021/03/09 00:03:19;;;;;;;45.50;14.07;;;;;;;1.11;48.90;94776.84;10323210;28;20099;-73
2021/03/09 00:08:19;;;;;;;28.63;12.40;;;;;;;1.11;49.38;94776.84;10321846;28;20300;-74
2021/03/09 00:13:20;;;;;;;32.08;12.82;;;;;;;1.06;49.05;94774.06;10322578;28;20276;-74
2021/03/09 00:18:20;;;;;;;28.47;12.93;;;;;;;0.96;50.04;94784.25;10322669;28;20042;-73
2021/03/09 00:23:20;;;;;;;29.57;14.13;;;;;;;0.81;50.08;94803.88;10322726;28;20364;-73
2021/03/09 00:28:21;;;;;;;33.83;14.40;;;;;;;0.72;50.68;94796.41;10322831;28;20285;-73
2021/03/09 00:33:21;;;;;;;32.72;12.13;;;;;;;0.60;51.32;94799.69;10321769;28;20356;-73
2021/03/09 00:38:22;;;;;;;28.95;12.75;;;;;;;0.55;52.90;94790.78;10322511;28;20121;-74
2021/03/09 00:43:22;;;;;;;28.95;12.95;;;;;;;0.45;53.25;94791.22;10322521;28;20553;-73
2021/03/09 00:48:22;;;;;;;33.33;12.93;;;;;;;0.44;54.74;94790.38;10320842;28;20026;-73
2021/03/09 00:53:23;;;;;;;34.28;13.43;;;;;;;0.40;55.10;94789.16;10321625;28;20277;-73
2021/03/09 00:58:23;;;;;;;28.20;12.83;;;;;;;0.37;54.49;94789.59;10322078;28;20117;-73
2021/03/09 01:03:24;;;;;;;30.40;14.20;;;;;;;0.42;56.23;94788.97;10320686;28;20030;-73
2021/03/09 01:08:24;;;;;;;23.50;12.38;;;;;;;0.47;56.24;94782.03;10313399;28;20026;-73
2021/03/09 01:13:25;;;;;;;28.10;12.95;;;;;;;0.48;58.52;94780.22;10281073;28;20033;-74
2021/03/09 01:18:25;;;;;;;30.55;13.85;;;;;;;0.46;58.59;94780.41;10281371;28;20027;-73
2021/03/09 01:23:26;;;;;;;33.70;12.75;;;;;;;0.45;58.08;94780.63;10321265;28;20031;-74
2021/03/09 01:28:26;;;;;;;34.50;13.73;;;;;;;0.46;56.98;94780.41;10321338;28;20030;-74
2021/03/09 01:33:26;;;;;;;35.43;16.53;;;;;;;0.21;58.45;94774.19;10321428;28;20312;-74
2021/03/09 01:38:27;;;;;;;35.37;14.63;;;;;;;0.29;59.42;94792.47;10321214;28;20301;-74
2021/03/09 01:43:27;;;;;;;40.88;14.95;;;;;;;0.23;56.50;94788.00;10322143;28;20653;-74
2021/03/09 01:48:34;;;;;;;34.85;14.13;;;;;;;0.27;55.98;94789.22;10327938;28;20026;-73
2021/03/09 01:53:34;;;;;;;37.95;14.15;;;;;;;0.23;57.27;94786.16;10328862;28;20062;-74
2021/03/09 01:58:39;;;;;;;31.58;13.93;;;;;;;0.26;59.55;94800.81;10323008;28;20118;-74
2021/03/09 02:03:40;;;;;;;35.13;16.45;;;;;;;0.28;61.07;94788.19;10291517;28;20418;-74
2021/03/09 02:08:41;;;;;;;34.33;16.35;;;;;;;0.26;58.81;94790.22;10326858;28;20033;-72
2021/03/09 02:13:56;;;;;;;44.25;17.08;;;;;;;0.31;57.18;94782.50;10328427;28;20045;-74
2021/03/09 02:19:18;;;;;;;49.05;17.17;;;;;;;0.54;57.51;94782.00;10327019;28;20024;-74
2021/03/09 02:24:49;;;;;;;37.15;18.23;;;;;;;0.49;56.82;94787.13;10326753;28;20034;-74
2021/03/09 02:29:56;;;;;;;43.30;16.95;;;;;;;0.58;57.48;94783.22;10327865;28;20038;-74
2021/03/09 02:35:00;;;;;;;38.88;17.85;;;;;;;0.60;56.74;94793.56;10325941;28;20113;-74
2021/03/09 02:40:06;;;;;;;41.05;18.45;;;;;;;0.51;57.63;94793.00;10327585;28;20402;-74
2021/03/09 02:45:07;;;;;;;35.10;16.58;;;;;;;0.43;58.29;94798.53;10327110;28;20062;-73
2021/03/09 02:50:10;;;;;;;41.38;18.10;;;;;;;0.34;57.88;94798.75;10327110;28;20045;-74
2021/03/09 02:55:14;;;;;;;45.83;19.02;;;;;;;0.30;59.72;94802.81;10325301;28;20030;-74
2021/03/09 03:00:15;;;;;;;42.00;17.67;;;;;;;0.25;59.85;94801.81;10326499;28;20457;-74
2021/03/09 03:05:17;;;;;;;37.38;18.40;;;;;;;0.25;60.73;94802.66;10324952;28;20818;-74
2021/03/09 03:10:19;;;;;;;44.20;18.75;;;;;;;0.26;64.44;94804.25;10322539;28;20030;-74
2021/03/09 03:15:21;;;;;;;40.60;16.45;;;;;;;0.34;62.06;94803.22;10306687;28;20418;-74
2021/03/09 03:20:22;;;;;;;38.17;15.38;;;;;;;0.33;62.26;94797.13;10283606;28;20029;-74
2021/03/09 03:25:25;;;;;;;30.65;15.95;;;;;;;0.36;61.63;94809.09;10284635;28;20027;-74
2021/03/09 03:30:25;;;;;;;38.05;17.27;;;;;;;0.36;65.04;94809.09;10284389;28;20054;-74
2021/03/09 03:35:26;;;;;;;44.35;18.27;;;;;;;0.35;67.52;94807.50;10284536;28;20030;-74
2021/03/09 03:40:27;;;;;;;38.42;17.35;;;;;;;0.23;66.47;94807.31;10284505;28;20047;-74
2021/03/09 03:45:27;;;;;;;43.38;18.63;;;;;;;-0.03;69.96;94818.72;10284376;28;20019;-74
2021/03/09 03:50:30;;;;;;;37.07;19.33;;;;;;;0.12;67.76;94829.88;10283188;28;20030;-74
2021/03/09 03:55:33;;;;;;;43.72;18.17;;;;;;;-0.02;70.53;94823.00;10284266;28;20109;-74
2021/03/09 04:00:34;;;;;;;35.10;16.33;;;;;;;0.06;72.04;94820.16;10283913;28;20034;-74
2021/03/09 04:05:36;;;;;;;35.70;19.42;;;;;;;0.24;72.80;94811.59;10282117;28;20678;-73
2021/03/09 04:10:37;;;;;;;37.25;18.23;;;;;;;0.31;72.85;94814.22;10283408;28;20033;-74
2021/03/09 04:15:37;;;;;;;36.75;18.23;;;;;;;0.37;68.59;94821.31;10283486;28;20035;-75
2021/03/09 04:20:42;;;;;;;46.13;20.02;;;;;;;0.39;73.13;94824.59;10281896;28;20023;-72
2021/03/09 04:25:43;;;;;;;40.05;18.48;;;;;;;0.58;69.50;94835.31;10282305;28;20449;-74
2021/03/09 04:30:44;;;;;;;41.42;17.67;;;;;;;0.57;67.33;94833.66;10281751;28;20030;-74
2021/03/09 04:35:44;;;;;;;33.65;17.25;;;;;;;0.59;67.43;94837.72;10281781;28;20445;-74
2021/03/09 04:40:45;;;;;;;47.58;17.92;;;;;;;0.66;66.86;94840.38;10279595;28;20047;-74
2021/03/09 04:45:46;;;;;;;42.75;14.85;;;;;;;0.47;71.41;94842.03;10281305;28;20064;-74
2021/03/09 04:50:50;;;;;;;43.63;15.23;;;;;;;0.62;68.24;94839.16;10281026;28;20379;-74
2021/03/09 04:55:50;;;;;;;32.28;15.40;;;;;;;0.45;67.70;94844.88;10281887;28;20058;-73
2021/03/09 05:00:52;;;;;;;31.92;17.17;;;;;;;0.40;67.47;94854.47;10281055;28;20034;-74
2021/03/09 05:05:53;;;;;;;36.95;17.55;;;;;;;0.50;70.26;94847.72;10281899;28;20030;-74
2021/03/09 05:10:54;;;;;;;42.60;17.15;;;;;;;0.44;77.68;94850.38;10288228;28;20029;-74
2021/03/09 05:15:54;;;;;;;47.67;21.63;;;;;;;0.53;73.41;94841.22;10320305;28;20462;-74
2021/03/09 05:20:55;;;;;;;37.87;18.87;;;;;;;0.66;68.05;94843.00;10332117;28;20041;-74
2021/03/09 05:25:55;;;;;;;50.50;20.77;;;;;;;0.95;68.18;94843.50;10304306;28;20270;-74
2021/03/09 05:30:56;;;;;;;53.65;20.30;;;;;;;1.26;73.17;94839.31;10321986;28;20276;-73
2021/03/09 05:35:56;;;;;;;52.70;19.15;;;;;;;1.75;71.44;94848.34;10326212;28;20041;-74
2021/03/09 05:40:59;;;;;;;39.53;18.57;;;;;;;2.28;66.25;94841.00;10293651;28;20479;-73
2021/03/09 05:45:59;;;;;;;44.38;18.05;;;;;;;2.51;59.55;94843.00;10293392;28;20643;-75
2021/03/09 05:51:00;;;;;;;43.80;17.98;;;;;;;3.04;58.55;94849.56;10293767;28;20026;-75
2021/03/09 05:56:04;;;;;;;29.58;15.68;;;;;;;3.48;56.97;94852.09;10293768;28;20073;-75
2021/03/09 06:01:04;;;;;;;43.70;21.50;;;;;;;3.72;54.11;94847.63;10293076;28;20050;-75
2021/03/09 06:06:05;;;;;;;34.85;18.55;;;;;;;4.03;51.11;94835.09;10293696;28;20037;-75
2021/03/09 06:11:16;;;;;;;49.63;19.92;;;;;;;4.43;50.77;94837.09;10308035;28;20201;-74
2021/03/09 06:16:17;;;;;;;47.50;19.02;;;;;;;5.09;48.18;94851.03;10293020;28;20030;-74
2021/03/09 06:21:18;;;;;;;38.95;19.55;;;;;;;5.34;47.10;94854.41;10292968;28;20027;-75
2021/03/09 06:26:34;;;;;;;28.95;15.77;;;;;;;6.09;45.27;94863.25;10291827;28;20122;-75
2021/03/09 06:31:36;;;;;;;31.05;15.13;;;;;;;5.87;45.24;94866.59;10327035;28;20034;-74
2021/03/09 06:36:36;;;;;;;39.58;15.20;;;;;;;5.80;45.25;94865.94;10325267;28;20041;-73
2021/03/09 06:41:37;;;;;;;36.05;16.98;;;;;;;5.14;47.33;94869.75;10303388;28;20552;-73
2021/03/09 06:46:55;;;;;;;42.17;17.83;;;;;;;4.69;47.41;94874.91;10285241;28;20054;-74
2021/03/09 06:52:16;;;;;;;40.70;19.25;;;;;;;4.73;49.22;94874.22;10300890;28;20281;-74
2021/03/09 06:57:16;;;;;;;38.13;18.42;;;;;;;5.70;46.39;94873.75;10319951;28;20545;-73
2021/03/09 07:02:27;;;;;;;39.30;18.73;;;;;;;6.79;43.83;94869.91;10323666;28;20027;-74
2021/03/09 07:07:31;;;;;;;45.65;19.13;;;;;;;7.39;42.39;94870.16;10323991;28;20406;-75
2021/03/09 07:12:32;;;;;;;47.15;18.48;;;;;;;7.75;41.32;94867.88;10324673;28;20161;-73
2021/03/09 07:17:35;;;;;;;46.58;18.85;;;;;;;7.57;41.17;94877.06;10325016;28;20018;-73
2021/03/09 07:22:38;;;;;;;28.83;15.07;;;;;;;7.12;41.44;94888.81;10321734;28;20042;-73
2021/03/09 07:28:28;;;;;;;35.03;16.40;;;;;;;7.62;41.41;94887.00;10305630;28;20026;-73
2021/03/09 07:33:28;;;;;;;41.10;17.15;;;;;;;8.24;40.63;94887.63;10294179;28;20036;-73
2021/03/09 07:38:29;;;;;;;56.42;24.00;;;;;;;9.46;39.40;94872.59;10322491;28;20540;-74
2021/03/09 07:43:30;;;;;;;56.95;25.45;;;;;;;10.28;38.08;94872.78;10319461;28;20034;-74
2021/03/09 07:48:30;;;;;;;58.85;25.23;;;;;;;10.36;36.67;94871.50;10323951;28;20050;-74
2021/03/09 07:53:31;;;;;;;64.65;28.05;;;;;;;9.00;39.29;94871.31;10323618;28;20053;-73
2021/03/09 07:58:32;;;;;;;54.60;25.13;;;;;;;9.04;39.22;94859.03;10323179;28;20260;-73
2021/03/09 08:03:37;;;;;;;66.47;28.13;;;;;;;9.04;40.36;94856.34;10321943;28;20026;-73
2021/03/09 08:08:55;;;;;;;66.38;27.67;;;;;;;8.47;40.69;94857.03;10321184;28;20477;-73
2021/03/09 08:14:05;;;;;;;67.95;30.20;;;;;;;7.90;42.02;94858.38;10321744;28;20112;-73
2021/03/09 08:19:32;;;;;;;59.65;25.23;;;;;;;8.67;41.47;94851.81;10310600;28;20474;-74
2021/03/09 08:24:42;;;;;;;55.15;25.83;;;;;;;8.70;40.06;94853.97;10317940;28;20418;-73
2021/03/09 08:29:42;;;;;;;75.53;28.10;;;;;;;9.14;40.39;94852.06;10321781;28;20041;-73
2021/03/09 08:34:42;;;;;;;54.50;27.90;;;;;;;9.52;39.50;94852.78;10316069;28;20037;-73
2021/03/09 08:40:06;;;;;;;57.07;27.40;;;;;;;9.14;39.34;94842.19;10321102;28;20301;-73
2021/03/09 08:45:31;;;;;;;66.57;27.95;;;;;;;8.99;40.36;94832.19;10315777;28;20038;-73
2021/03/09 08:50:41;;;;;;;59.50;27.23;;;;;;;9.15;38.68;94842.97;10308364;28;20046;-74
2021/03/09 08:55:53;;;;;;;72.95;31.02;;;;;;;9.01;39.18;94851.47;10323841;28;20097;-74
2021/03/09 09:00:53;;;;;;;52.40;23.98;;;;;;;8.81;39.78;94843.34;10314494;28;20113;-73
2021/03/09 09:05:54;;;;;;;48.67;22.55;;;;;;;8.65;41.27;94847.78;10320747;28;20060;-73
2021/03/09 09:10:55;;;;;;;43.10;22.55;;;;;;;8.26;40.71;94838.13;10314669;28;20117;-73
2021/03/09 09:15:55;;;;;;;45.22;21.95;;;;;;;8.41;39.65;94836.59;10321322;28;20034;-73
2021/03/09 09:20:58;;;;;;;48.55;23.33;;;;;;;8.45;39.96;94843.91;10316348;28;20026;-74
2021/03/09 09:26:02;;;;;;;42.10;20.80;;;;;;;8.48;39.53;94839.91;10312164;28;20064;-74
2021/03/09 09:31:10;;;;;;;43.83;22.88;;;;;;;8.30;39.91;94843.75;10299253;28;20027;-74
2021/03/09 09:36:11;;;;;;;48.47;24.70;;;;;;;8.50;39.81;94824.41;10303937;28;20363;-74
2021/03/09 09:41:11;;;;;;;58.75;24.58;;;;;;;8.29;39.13;94837.59;10304999;28;20047;-75
2021/03/09 09:46:19;;;;;;;48.43;24.37;;;;;;;8.50;39.29;94829.75;10318244;28;20041;-74
2021/03/09 09:51:24;;;;;;;42.97;19.67;;;;;;;8.61;37.88;94830.59;10319458;28;20556;-74
2021/03/09 09:56:25;;;;;;;45.25;21.27;;;;;;;8.57;39.49;94826.81;10307547;28;20773;-75
2021/03/09 10:01:31;;;;;;;43.20;20.38;;;;;;;8.72;39.88;94817.03;10285126;28;20030;-75
2021/03/09 10:06:43;;;;;;;35.33;18.42;;;;;;;8.84;39.11;94816.00;10324130;28;20533;-75
2021/03/09 10:11:48;;;;;;;47.55;19.35;;;;;;;8.49;39.26;94828.94;10326235;28;20030;-75
2021/03/09 10:16:49;;;;;;;43.45;20.77;;;;;;;8.21;39.45;94811.28;10345761;28;20805;-75
2021/03/09 10:21:55;;;;;;;43.05;20.90;;;;;;;8.03;40.01;94810.59;10314616;28;20029;-74
2021/03/09 10:26:56;;;;;;;36.17;18.95;;;;;;;8.50;38.67;94806.44;10314110;28;20030;-75
2021/03/09 10:31:59;;;;;;;43.47;18.95;;;;;;;8.94;37.26;94796.50;10324297;28;20035;-75
2021/03/09 10:37:01;;;;;;;43.63;19.65;;;;;;;8.92;38.34;94795.94;10312063;28;20031;-74
2021/03/09 10:42:27;;;;;;;45.63;21.13;;;;;;;9.09;36.93;94790.41;10296420;28;20055;-73
2021/03/09 10:47:27;;;;;;;50.92;20.52;;;;;;;9.30;36.82;94783.25;10303223;28;20093;-74
2021/03/09 10:52:28;;;;;;;43.83;19.57;;;;;;;9.69;36.52;94780.91;10301869;28;20037;-74
2021/03/09 10:57:28;;;;;;;44.50;18.23;;;;;;;9.61;35.81;94776.06;10299412;28;20030;-75
2021/03/09 11:02:29;;;;;;;40.55;18.52;;;;;;;9.26;36.69;94766.06;10299468;28;20286;-73
2021/03/09 11:07:29;;;;;;;43.73;19.67;;;;;;;9.41;36.41;94769.56;10318802;28;20037;-74
2021/03/09 11:12:29;;;;;;;55.40;22.37;;;;;;;9.57;36.81;94759.69;10304233;28;20030;-75
2021/03/09 11:17:30;;;;;;;47.00;22.53;;;;;;;9.52;36.56;94762.38;10302625;28;20120;-74
2021/03/09 11:22:30;;;;;;;51.23;21.43;;;;;;;9.71;36.58;94760.00;10301375;28;20325;-75
2021/03/09 11:27:30;;;;;;;44.00;20.60;;;;;;;9.86;36.10;94758.38;10307818;28;20489;-75
2021/03/09 11:32:31;;;;;;;46.53;21.67;;;;;;;9.65;36.28;94747.63;10309162;28;20416;-75
2021/03/09 11:37:31;;;;;;;53.90;20.33;;;;;;;9.76;37.62;94735.03;10308554;28;20026;-75
2021/03/09 11:42:31;;;;;;;28.77;11.83;;;;;;;10.08;33.76;94728.59;10314110;28;20966;-75
2021/03/09 11:47:32;;;;;;;45.27;16.83;;;;;;;10.12;34.64;94718.09;10319380;28;20286;-74
2021/03/09 11:52:32;;;;;;;29.65;14.15;;;;;;;10.31;33.45;94723.72;10317080;28;20066;-75
2021/03/09 11:57:33;;;;;;;32.45;16.27;;;;;;;10.25;34.15;94699.53;10309165;28;20041;-75
2021/03/09 12:02:34;;;;;;;45.90;16.58;;;;;;;9.99;33.73;94700.66;10301908;28;20156;-75
2021/03/09 12:07:34;;;;;;;42.58;18.85;;;;;;;9.80;35.23;94693.16;10302113;28;20106;-75
2021/03/09 12:12:35;;;;;;;44.60;19.43;;;;;;;9.80;34.83;94682.41;10302816;28;20031;-75
2021/03/09 12:17:35;;;;;;;39.67;16.57;;;;;;;9.78;34.70;94675.72;10282567;28;20389;-75
2021/03/09 12:22:36;;;;;;;33.53;15.93;;;;;;;9.57;34.00;94676.53;10282596;28;20298;-75
2021/03/09 12:27:36;;;;;;;39.33;16.40;;;;;;;9.41;35.11;94677.59;10282028;28;20034;-74
2021/03/09 12:32:37;;;;;;;38.55;16.42;;;;;;;9.34;35.21;94677.03;10282673;28;20035;-76
2021/03/09 12:37:38;;;;;;;36.33;16.10;;;;;;;9.43;35.43;94674.63;10280368;28;20043;-74
2021/03/09 12:42:39;;;;;;;34.50;16.02;;;;;;;9.40;35.88;94671.41;10282055;28;20392;-75
2021/03/09 12:47:39;;;;;;;27.90;13.70;;;;;;;9.21;35.03;94667.66;10281655;28;20039;-76
2021/03/09 12:52:39;;;;;;;45.42;16.88;;;;;;;9.09;36.34;94667.09;10289012;28;20026;-76
2021/03/09 12:57:40;;;;;;;34.23;14.27;;;;;;;8.60;36.24;94666.41;10320333;28;20029;-75
2021/03/09 13:02:41;;;;;;;30.50;13.57;;;;;;;8.41;37.07;94662.53;10319560;28;20289;-76
2021/03/09 13:07:42;;;;;;;26.85;13.38;;;;;;;8.47;36.59;94669.53;10320884;28;20030;-75
2021/03/09 13:12:42;;;;;;;27.43;14.30;;;;;;;8.36;36.96;94672.16;10321366;28;20018;-76
2021/03/09 13:17:43;;;;;;;31.77;14.10;;;;;;;8.33;37.38;94664.66;10321669;28;20274;-75
2021/03/09 13:22:43;;;;;;;32.07;12.77;;;;;;;8.36;37.81;94661.44;10320978;28;20093;-76
2021/03/09 13:27:44;;;;;;;28.55;13.38;;;;;;;8.27;38.23;94651.50;10319311;28;20392;-75
2021/03/09 13:32:45;;;;;;;27.00;13.10;;;;;;;8.43;38.69;94637.09;10320264;28;20022;-75
2021/03/09 13:37:46;;;;;;;30.90;11.23;;;;;;;8.44;37.65;94641.41;10320798;28;20034;-76
2021/03/09 13:42:47;;;;;;;25.80;12.18;;;;;;;8.37;38.24;94640.81;10327168;28;20465;-75
2021/03/09 13:47:47;;;;;;;21.02;11.30;;;;;;;8.28;37.09;94643.19;10327350;28;20032;-75
2021/03/09 13:52:48;;;;;;;24.48;11.45;;;;;;;8.23;38.10;94642.38;10327466;28;20129;-76
2021/03/09 13:57:48;;;;;;;29.70;11.87;;;;;;;8.27;38.21;94649.59;10302596;28;20027;-76
2021/03/09 14:02:49;;;;;;;20.53;10.63;;;;;;;8.35;38.33;94651.78;10334852;28;20030;-76
2021/03/09 14:07:49;;;;;;;16.13;7.30;;;;;;;8.24;41.73;94649.34;10312155;28;20025;-75
2021/03/09 14:12:50;;;;;;;25.92;9.75;;;;;;;7.94;41.98;94648.09;10325073;28;20109;-75
2021/03/09 14:17:50;;;;;;;16.73;7.80;;;;;;;7.41;45.70;94654.16;10326556;28;20030;-75
2021/03/09 14:22:51;;;;;;;17.90;8.32;;;;;;;7.26;46.32;94649.47;10302218;28;20038;-75
2021/03/09 14:27:51;;;;;;;17.77;8.68;;;;;;;7.29;46.77;94653.50;10285476;28;20034;-75
2021/03/09 14:32:52;;;;;;;15.10;6.97;;;;;;;7.21;46.59;94662.78;10304632;28;20033;-75
2021/03/09 14:37:52;;;;;;;14.32;7.60;;;;;;;7.34;47.38;94648.22;10315138;28;20165;-75
2021/03/09 14:42:53;;;;;;;16.50;7.35;;;;;;;7.42;47.12;94652.28;10285669;28;20057;-75
2021/03/09 14:47:54;;;;;;;17.70;7.55;;;;;;;7.52;47.01;94657.69;10285723;28;20538;-75
2021/03/09 14:52:54;;;;;;;12.35;7.45;;;;;;;7.46;46.91;94664.06;10284471;28;20022;-75
2021/03/09 14:57:54;;;;;;;14.20;7.70;;;;;;;7.54;47.23;94658.25;10285405;28;20169;-75
2021/03/09 15:02:55;;;;;;;17.43;7.90;;;;;;;7.42;48.69;94649.59;10285079;28;20463;-75
2021/03/09 15:07:55;;;;;;;16.80;7.53;;;;;;;7.12;52.67;94667.00;10303023;28;20064;-75
2021/03/09 15:12:56;;;;;;;15.48;7.07;;;;;;;6.67;58.62;94669.75;10324228;28;20033;-75
2021/03/09 15:17:56;;;;;;;18.67;7.33;;;;;;;6.22;68.18;94680.66;10290506;28;20115;-75
2021/03/09 15:22:57;;;;;;;15.40;7.10;;;;;;;5.24;84.82;94677.31;10294634;28;20114;-74
2021/03/09 15:27:57;;;;;;;18.30;7.30;;;;;;;4.77;96.65;94682.88;10283791;28;20026;-74
2021/03/09 15:32:58;;;;;;;14.55;7.65;;;;;;;4.55;100.00;94675.53;10306763;28;20808;-75
2021/03/09 15:37:59;;;;;;;20.02;8.98;;;;;;;4.53;100.00;94671.50;10302514;28;20054;-74
2021/03/09 15:43:00;;;;;;;15.85;7.43;;;;;;;4.45;100.00;94678.00;10302604;28;20058;-74
2021/03/09 15:48:00;;;;;;;14.65;8.35;;;;;;;4.63;100.00;94671.69;10302352;28;20486;-75
2021/03/09 15:53:01;;;;;;;16.50;8.27;;;;;;;4.81;100.00;94673.34;10303863;28;20022;-75
2021/03/09 15:58:02;;;;;;;23.38;10.90;;;;;;;4.83;100.00;94684.59;10323025;28;20374;-74
2021/03/09 16:03:02;;;;;;;20.85;10.63;;;;;;;4.56;100.00;94693.16;10322794;28;20117;-75
2021/03/09 16:08:03;;;;;;;26.83;10.93;;;;;;;4.31;100.00;94693.41;10323305;28;20815;-75
2021/03/09 16:13:03;;;;;;;23.52;11.23;;;;;;;4.07;100.00;94692.66;10321652;28;20037;-75
2021/03/09 16:18:04;;;;;;;26.35;12.00;;;;;;;4.02;100.00;94692.53;10322957;28;20034;-75
2021/03/09 16:23:05;;;;;;;21.35;10.73;;;;;;;3.97;100.00;94690.56;10322576;28;20722;-75
2021/03/09 16:28:06;;;;;;;22.85;10.35;;;;;;;3.84;100.00;94698.81;10311084;28;20030;-75
2021/03/09 16:33:06;;;;;;;19.27;11.00;;;;;;;3.67;100.00;94696.00;10315983;28;20022;-75
2021/03/09 16:38:06;;;;;;;23.90;10.50;;;;;;;3.59;100.00;94697.19;10292098;28;20129;-75
2021/03/09 16:43:07;;;;;;;25.10;9.77;;;;;;;3.55;100.00;94688.84;10303864;28;20042;-74
2021/03/09 16:48:08;;;;;;;23.52;10.52;;;;;;;3.48;100.00;94688.16;10297534;28;20073;-73
2021/03/09 16:53:08;;;;;;;28.77;9.73;;;;;;;3.49;100.00;94697.75;10320693;28;20034;-77
2021/03/09 16:58:09;;;;;;;18.30;9.00;;;;;;;3.63;100.00;94703.66;10320621;28;20092;-73
2021/03/09 17:03:10;;;;;;;23.60;11.00;;;;;;;3.93;100.00;94700.88;10317964;28;20285;-73
2021/03/09 17:08:10;;;;;;;14.75;7.88;;;;;;;4.24;100.00;94698.88;10312112;28;20665;-76
2021/03/09 17:13:11;;;;;;;21.83;9.15;;;;;;;4.47;100.00;94705.19;10299221;28;20026;-74
2021/03/09 17:18:11;;;;;;;16.65;8.10;;;;;;;4.40;100.00;94707.97;10322601;28;20299;-74
2021/03/09 17:23:11;;;;;;;16.47;8.57;;;;;;;4.48;100.00;94716.63;10313115;28;20505;-74
2021/03/09 17:28:12;;;;;;;19.70;10.13;;;;;;;4.49;100.00;94713.72;10281894;28;20704;-74
2021/03/09 17:33:12;;;;;;;19.42;10.07;;;;;;;4.59;100.00;94705.16;10308600;28;20074;-75
2021/03/09 17:38:12;;;;;;;19.13;9.70;;;;;;;4.56;100.00;94709.13;10321720;28;20054;-75
2021/03/09 17:43:13;;;;;;;18.93;10.13;;;;;;;4.61;100.00;94697.75;10320542;28;20309;-74
2021/03/09 17:48:14;;;;;;;15.98;9.52;;;;;;;4.52;100.00;94692.00;10302301;28;20290;-75
2021/03/09 17:53:15;;;;;;;28.13;9.40;;;;;;;4.40;100.00;94688.56;10281907;28;20042;-74
2021/03/09 17:58:15;;;;;;;22.98;11.05;;;;;;;4.25;100.00;94689.84;10319115;28;20038;-75
2021/03/09 18:03:16;;;;;;;20.88;10.68;;;;;;;4.28;100.00;94685.91;10284013;28;20040;-75
2021/03/09 18:08:16;;;;;;;20.47;11.60;;;;;;;4.30;100.00;94681.19;10295692;28;20509;-75
2021/03/09 18:13:17;;;;;;;23.60;13.02;;;;;;;4.39;100.00;94692.25;10317752;28;20285;-75
2021/03/09 18:18:18;;;;;;;27.10;11.77;;;;;;;4.41;100.00;94680.34;10321336;28;20447;-75
2021/03/09 18:23:18;;;;;;;32.85;16.40;;;;;;;4.40;100.00;94681.38;10321454;28;20049;-75
2021/03/09 18:28:19;;;;;;;34.65;18.55;;;;;;;4.20;100.00;94679.13;10325294;28;20535;-75
2021/03/09 18:33:19;;;;;;;37.22;17.25;;;;;;;4.23;100.00;94685.81;10310815;28;20484;-74
2021/03/09 18:38:20;;;;;;;37.03;17.45;;;;;;;4.23;100.00;94677.84;10326165;28;20051;-75
2021/03/09 18:43:20;;;;;;;30.13;17.10;;;;;;;4.20;100.00;94670.31;10327582;28;20117;-75
2021/03/09 18:48:21;;;;;;;33.40;17.15;;;;;;;4.08;100.00;94679.13;10293218;28;20042;-75
2021/03/09 18:53:21;;;;;;;36.83;17.47;;;;;;;4.07;100.00;94669.50;10314054;28;20049;-74
2021/03/09 18:58:22;;;;;;;43.10;19.83;;;;;;;4.17;100.00;94662.81;10326522;28;20289;-75
2021/03/09 19:03:22;;;;;;;45.57;19.43;;;;;;;4.33;100.00;94661.28;10325983;28;20101;-74
2021/03/09 19:08:23;;;;;;;39.92;19.52;;;;;;;4.37;100.00;94671.19;10327261;28;20285;-74
2021/03/09 19:13:23;;;;;;;34.63;16.80;;;;;;;4.45;100.00;94672.66;10325763;28;20056;-75
2021/03/09 19:18:24;;;;;;;32.87;15.40;;;;;;;4.36;100.00;94660.81;10325954;28;20273;-75
2021/03/09 19:23:25;;;;;;;31.25;15.40;;;;;;;4.23;100.00;94654.69;10326959;28;20057;-74
2021/03/09 19:28:25;;;;;;;33.73;17.43;;;;;;;4.34;100.00;94652.22;10326417;28;20109;-74
2021/03/09 19:33:26;;;;;;;36.03;16.93;;;;;;;4.39;100.00;94637.16;10325220;28;20084;-74
2021/03/09 19:38:26;;;;;;;48.13;18.85;;;;;;;4.43;100.00;94627.66;10291708;28;20140;-75
2021/03/09 19:43:26;;;;;;;40.17;20.20;;;;;;;4.43;100.00;94618.91;10285954;28;20063;-74
2021/03/09 19:48:27;;;;;;;31.27;16.90;;;;;;;4.37;100.00;94633.16;10300263;28;20101;-74
2021/03/09 19:53:28;;;;;;;33.05;14.25;;;;;;;4.30;100.00;94616.50;10325898;28;20277;-75
2021/03/09 19:58:29;;;;;;;28.55;12.88;;;;;;;4.16;100.00;94605.31;10343387;28;20397;-74
2021/03/09 20:03:30;;;;;;;31.83;15.02;;;;;;;4.05;100.00;94599.81;10328253;28;20030;-74
2021/03/09 20:08:31;;;;;;;36.10;16.87;;;;;;;4.08;100.00;94596.69;10324689;28;20478;-74
2021/03/09 20:13:32;;;;;;;47.22;18.80;;;;;;;4.01;100.00;94592.53;10324732;28;20757;-74
2021/03/09 20:18:32;;;;;;;52.13;24.27;;;;;;;3.98;100.00;94593.81;10324159;28;20030;-74
2021/03/09 20:23:32;;;;;;;59.28;26.20;;;;;;;4.00;100.00;94586.41;10323320;28;20033;-75
2021/03/09 20:28:33;;;;;;;61.37;26.47;;;;;;;3.96;100.00;94595.91;10324243;28;20030;-74
2021/03/09 20:33:33;;;;;;;54.60;23.50;;;;;;;3.91;100.00;94598.47;10322867;28;21140;-75
2021/03/09 20:38:34;;;;;;;42.30;21.02;;;;;;;4.06;100.00;94593.47;10322830;28;20384;-74
2021/03/09 20:43:34;;;;;;;41.20;19.55;;;;;;;4.10;100.00;94588.47;10323795;28;20040;-74
2021/03/09 20:48:35;;;;;;;38.63;19.58;;;;;;;4.21;100.00;94569.00;10323191;28;20088;-74
2021/03/09 20:53:35;;;;;;;47.60;23.17;;;;;;;4.31;100.00;94572.91;10324008;28;20073;-74
2021/03/09 20:58:36;;;;;;;75.38;33.70;;;;;;;4.31;100.00;94573.69;10322345;28;20057;-75
2021/03/09 21:03:37;;;;;;;102.40;46.80;;;;;;;4.24;100.00;94573.84;10321206;28;20023;-75
2021/03/09 21:08:37;;;;;;;109.20;49.83;;;;;;;4.30;100.00;94576.59;10316607;28;20029;-75
2021/03/09 21:13:39;;;;;;;112.40;50.07;;;;;;;4.31;100.00;94575.56;10301797;28;20261;-75
2021/03/09 21:18:39;;;;;;;95.03;44.45;;;;;;;4.25;100.00;94577.31;10302020;28;20360;-75
2021/03/09 21:23:39;;;;;;;92.27;44.57;;;;;;;4.23;100.00;94574.09;10315099;28;20034;-75
2021/03/09 21:28:40;;;;;;;101.90;47.67;;;;;;;4.13;100.00;94563.25;10321029;28;20026;-74
2021/03/09 21:33:40;;;;;;;79.60;37.77;;;;;;;4.16;100.00;94562.75;10322248;28;20045;-74
2021/03/09 21:38:40;;;;;;;58.10;27.90;;;;;;;4.13;100.00;94563.25;10316266;28;20149;-74
2021/03/09 21:43:41;;;;;;;52.00;26.30;;;;;;;4.11;100.00;94560.81;10282279;28;20058;-74
2021/03/09 21:48:41;;;;;;;56.27;27.77;;;;;;;4.09;100.00;94552.28;10282052;28;20285;-74
2021/03/09 21:53:41;;;;;;;56.73;28.07;;;;;;;4.14;100.00;94541.72;10300438;28;20084;-75
2021/03/09 21:58:42;;;;;;;61.13;31.57;;;;;;;4.13;100.00;94545.47;10321957;28;20116;-75
2021/03/09 22:03:42;;;;;;;64.10;33.60;;;;;;;3.97;100.00;94543.53;10328435;28;20115;-75
2021/03/09 22:08:43;;;;;;;71.47;31.33;;;;;;;4.11;100.00;94536.88;10330173;28;20445;-75
2021/03/09 22:13:43;;;;;;;59.38;29.85;;;;;;;4.03;100.00;94530.13;10329596;28;20097;-75
2021/03/09 22:18:43;;;;;;;59.47;28.57;;;;;;;4.02;100.00;94532.97;10329390;28;20540;-75
2021/03/09 22:23:44;;;;;;;60.87;28.93;;;;;;;3.69;100.00;94531.81;10330429;28;20141;-75
2021/03/09 22:28:45;;;;;;;59.85;29.40;;;;;;;3.66;100.00;94525.13;10327981;28;20026;-75
2021/03/09 22:33:45;;;;;;;57.60;29.90;;;;;;;3.71;100.00;94521.75;10329764;28;20019;-79
2021/03/09 22:38:46;;;;;;;55.23;27.10;;;;;;;3.73;100.00;94520.47;10334231;28;20582;-79
2021/03/09 22:43:54;;;;;;;50.85;26.38;;;;;;;3.58;100.00;94512.19;10334980;28;20289;-78
2021/03/09 22:48:55;;;;;;;53.50;25.20;;;;;;;3.47;100.00;94513.84;10309059;28;20027;-78
2021/03/09 22:53:55;;;;;;;43.47;23.15;;;;;;;3.54;100.00;94497.78;10295155;28;20049;-78
2021/03/09 22:58:58;;;;;;;48.07;23.83;;;;;;;3.61;100.00;94511.72;10294982;28;20084;-77
2021/03/09 23:03:58;;;;;;;56.80;23.25;;;;;;;3.53;100.00;94499.63;10294607;28;20282;-78